This is the latest recevied weather packets stored in our database for station/object KI2K. If no packets are shown the sender has not sent any weather packets the latest 10 day(s).
| Time | Temp. | Humidity | Pressure | Rain* | Wind** | Luminosity | Snow |
|---|---|---|---|---|---|---|---|
| 1777934784 | 24.44° C | 49% | 1002.8 hPa | 0 mm | - | 180 W/m² | - |
| 1777934481 | 24.44° C | 49% | 1003 hPa | 0 mm | - | 203 W/m² | - |
| 1777934178 | 24.44° C | 49% | 1003.3 hPa | 0 mm | - | 198 W/m² | - |
| 1777933874 | 24.44° C | 50% | 1003.5 hPa | 0 mm | - | 198 W/m² | - |
| 1777933571 | 23.89° C | 51% | 1003.4 hPa | 0 mm | - | 164 W/m² | - |
| 1777933268 | 24.44° C | 50% | 1003.5 hPa | 0 mm | - | 165 W/m² | - |
| 1777932965 | 24.44° C | 51% | 1003.4 hPa | 0 mm | - | 162 W/m² | - |
| 1777932663 | 24.44° C | 51% | 1003.4 hPa | 0 mm | - | 301 W/m² | - |
| 1777932359 | 24.44° C | 51% | 1003.3 hPa | 0 mm | - | 340 W/m² | - |
| 1777932056 | 24.44° C | 53% | 1003.4 hPa | 0 mm | - | 164 W/m² | - |
| 1777931752 | 24.44° C | 55% | 1003.2 hPa | 0 mm | - | 323 W/m² | - |
| 1777931450 | 23.89° C | 59% | 1003.5 hPa | 0 mm | - | 355 W/m² | - |
| 1777931145 | 23.33° C | 62% | 1003.5 hPa | 0 mm | - | 465 W/m² | - |
| 1777930842 | 22.78° C | 64% | 1003.7 hPa | 0 mm | - | 205 W/m² | - |
| 1777930538 | 22.22° C | 67% | 1003.7 hPa | 0 mm | - | 213 W/m² | - |
| 1777930236 | 22.22° C | 67% | 1003.6 hPa | 0 mm | - | 149 W/m² | - |
| 1777929932 | 22.78° C | 67% | 1003.5 hPa | 0 mm | - | 121 W/m² | - |
| 1777929629 | 23.33° C | 64% | 1003.7 hPa | 0 mm | - | 163 W/m² | - |
| 1777929326 | 22.78° C | 66% | 1003.9 hPa | 0 mm | - | 462 W/m² | - |
| 1777929023 | 22.78° C | 65% | 1004 hPa | 0 mm | - | 127 W/m² | - |
| 1777928720 | 24.44° C | 63% | 1004.1 hPa | 0 mm | - | 125 W/m² | - |
| 1777928417 | 23.89° C | 63% | 1003.9 hPa | 0 mm | - | 411 W/m² | - |
| 1777928115 | 23.89° C | 63% | 1003.9 hPa | 0 mm | - | 475 W/m² | - |
| 1777927812 | 23.89° C | 62% | 1004.1 hPa | 0 mm | - | 504 W/m² | - |
| 1777927510 | 23.33° C | 63% | 1004.3 hPa | 0 mm | - | 454 W/m² | - |
* Rain latest hour (hover to see other rain measurements)
** Current wind speed in m/s (hover to see current wind gust speed)